KNBT

Bt-11 Bombing Range Airport

Piney Island, North Carolina, USA
METAR KNBT 151556Z AUTO 22011KT 10SM SCT120 20/11 A2995 RMK AO2 SLP147 T02000111
Observed Flight Rules
Feb-15 @ 15:56 UTC (3 hours ago) Visual Flight Rules
Wind Visibility Clouds
220° at 11 knots 10 miles
  • Scattered at 12,000' AGL
Temperatures Readings
Current 20°C / 68°F
Dewpoint 11°C / 52°F
Humidity 56%
Altimeter 29.95" Hg
Pressure 1014.7 hPa
Elevation 5
METAR KNBT 151556Z AUTO 22011KT 10SM SCT120 20/11 A2995 RMK AO2 SLP147 T02000111
Observed Flight Rules
Feb-15 @ 15:56 UTC
(3 hours ago)
VFR
Wind Visibility
220° at 11 knots 10 miles
Clouds
  • Scattered at 12,000' AGL
Temperature Dewpoint
20°C / 68°F 11°C / 52°F
Humidity Altimeter Pressure
56% 29.95" Hg 1014.7 hPa